• Join FlightAware (Why Join?)
  • Login
  • US Flag 
07:22AM EDT


 

Airport Tracker/Info


-or-


 

Live Flight TrackerFlight Track Log ✈ JBU1781 ✈ 19-Jun-2013 ✈ KMCO - MYNN / NAS

Flight Track Log - Related Links

Times and Time Zones

All times are in EDT time to prevent confusion due to time zone crossing. See the JBU1781 flight status page for this flight to view local times or setup timezone preferences in your user account.

Time Position Orientation Groundspeed Altitude Reporting Facility
EDT Latitude Longitude Course Direction KTS MPH feet Rate Location/Type
02:08PM 28.4167 -81.3167 121° Southeast 150 173 700  Level Orlando TRACON
02:09PM 28.4000 -81.3167 180° South 163 188 1,800 1,860 Climbing Orlando TRACON
02:10PM 28.3667 -81.2667 127° Southeast 215 247 3,500 2,520 Climbing Orlando TRACON
02:11PM 27.6630 -80.4761 119° Southeast  Level FlightAware Approximate
02:11PM 28.3167 -81.2167 139° Southeast 231 266 6,700  Level Orlando TRACON
02:12PM 27.6245 -80.4159 130° Southeast  Level FlightAware Approximate
02:12PM 28.2500 -81.1833 156° South 280 322 8,100  Level Orlando TRACON
02:13PM 27.5855 -80.3560 121° Southeast  Level FlightAware Approximate
02:13PM 28.2331 -81.1219 107° East 295 339 8,600  Level Miami Center
02:14PM 27.5514 -80.2921 121° Southeast  Level FlightAware Approximate
02:14PM 28.2131 -81.0292 104° East 304 350 11,500  Level Miami Center
02:15PM 28.1903 -80.9436 107° East 304 350 14,100 2,460 Climbing Miami Center
02:16PM 28.1342 -80.8661 129° Southeast 309 356 16,500 1,740 Climbing Miami Center
02:17PM 28.0658 -80.7672 128° Southeast 343 395 17,600 1,560 Climbing Miami Center
02:18PM 27.9975 -80.6686 128° Southeast 369 425 19,700 2,100 Climbing Miami Center
02:19PM 27.9272 -80.5675 128° Southeast 394 453 21,900 1,920 Climbing Miami Center
02:20PM 27.8608 -80.4714 128° Southeast 400 460 23,600 1,620 Climbing Miami Center
02:21PM 27.7900 -80.3778 131° Southeast 414 476 25,200 1,500 Climbing Miami Center
02:22PM 27.7172 -80.2744 128° Southeast 414 476 26,700 1,440 Climbing Miami Center
02:23PM 27.6425 -80.1692 129° Southeast 414 476 28,100 1,260 Climbing Miami Center
02:24PM 27.5656 -80.0617 129° Southeast 425 489 29,300 1,200 Climbing Miami Center
02:25PM 27.4908 -79.9542 128° Southeast 430 495 30,500 1,080 Climbing Miami Center
02:26PM 27.4056 -79.8325 128° Southeast 436 502 31,500 720 Climbing Miami Center
02:27PM 27.3344 -79.7325 129° Southeast 451 519 32,000 240 Climbing Miami Center
02:28PM 27.2533 -79.6183 129° Southeast 467 537 32,000  Level Miami Center
02:29PM 27.1636 -79.4925 129° Southeast 472 543 32,000  Level Miami Center
02:30PM 27.0822 -79.3808 129° Southeast 472 543 32,000  Level Miami Center
02:31PM 27.0147 -79.2886 129° Southeast 472 543 32,000  Level Miami Center
02:32PM 26.9292 -79.1656 128° Southeast 472 543 32,000 -480 Level Miami Center
02:33PM 26.8431 -79.0497 130° Southeast 480 552 31,100 -1,200 Descending Miami Center
02:34PM 26.7611 -78.9367 129° Southeast 480 552 29,700 -1,440 Descending Miami Center
02:35PM 26.6792 -78.8236 129° Southeast 475 547 28,300 -1,440 Descending Miami Center
02:36PM 26.5931 -78.7083 130° Southeast 482 555 26,900 -2,160 Descending Miami Center
02:37PM 26.4983 -78.5953 133° Southeast 461 531 24,000 -1,380 Descending Miami Center
02:38PM 26.4244 -78.4831 126° Southeast 456 525 24,200 -540 Climbing Miami Center
02:39PM 26.3439 -78.3797 131° Southeast 451 519 23,000 -1,200 Descending Miami Center
02:40PM 26.2697 -78.2769 129° Southeast 440 506 21,900 -1,200 Descending Miami Center
02:41PM 26.1956 -78.1717 128° Southeast 435 501 20,700 -1,200 Descending Miami Center
02:42PM 26.1192 -78.0739 131° Southeast 430 495 19,600 -1,200 Descending Miami Center
02:43PM 26.0467 -77.9714 128° Southeast 425 489 18,400 -960 Descending Miami Center
02:44PM 25.9847 -77.8853 129° Southeast 418 481 17,700 -960 Descending Miami Center
02:45PM 25.9122 -77.7922 131° Southeast 404 465 16,500 -1,200 Descending Miami Center
02:46PM 25.8458 -77.6992 128° Southeast 392 451 15,400 -1,080 Descending Miami Center
02:47PM 25.7794 -77.6158 131° Southeast 381 438 14,400 -1,380 Descending Miami Center
02:48PM 25.6897 -77.5714 156° South 354 407 12,700 -1,740 Descending Miami Center